sensor_id;sensor_type;location;lat;lon;timestamp;temperature;humidity
20442;DHT22;10380;52.102;20.614;2023-02-28T00:01:46;-2.30;99.90
20442;DHT22;10380;52.102;20.614;2023-02-28T00:04:13;-2.40;99.90
20442;DHT22;10380;52.102;20.614;2023-02-28T00:06:39;-2.40;99.90
20442;DHT22;10380;52.102;20.614;2023-02-28T00:09:08;-2.40;99.90
20442;DHT22;10380;52.102;20.614;2023-02-28T00:11:35;-2.50;99.90
20442;DHT22;10380;52.102;20.614;2023-02-28T00:14:04;-2.50;99.90
20442;DHT22;10380;52.102;20.614;2023-02-28T00:16:31;-2.50;99.90
20442;DHT22;10380;52.102;20.614;2023-02-28T00:18:58;-2.50;99.90
20442;DHT22;10380;52.102;20.614;2023-02-28T00:21:25;-2.50;99.90
20442;DHT22;10380;52.102;20.614;2023-02-28T00:23:53;-2.60;99.90
20442;DHT22;10380;52.102;20.614;2023-02-28T00:26:20;-2.60;99.90
20442;DHT22;10380;52.102;20.614;2023-02-28T00:28:47;-2.70;99.90
20442;DHT22;10380;52.102;20.614;2023-02-28T00:31:15;-2.70;99.90
20442;DHT22;10380;52.102;20.614;2023-02-28T00:33:42;-2.70;99.90
20442;DHT22;10380;52.102;20.614;2023-02-28T00:36:10;-2.80;99.90
20442;DHT22;10380;52.102;20.614;2023-02-28T00:38:40;-2.70;99.90
20442;DHT22;10380;52.102;20.614;2023-02-28T00:41:09;-2.80;99.90
20442;DHT22;10380;52.102;20.614;2023-02-28T00:43:38;-2.80;99.90
20442;DHT22;10380;52.102;20.614;2023-02-28T00:46:05;-2.80;99.90
20442;DHT22;10380;52.102;20.614;2023-02-28T00:48:33;-2.80;99.90
20442;DHT22;10380;52.102;20.614;2023-02-28T00:51:00;-2.80;99.90
20442;DHT22;10380;52.102;20.614;2023-02-28T00:53:28;-2.90;99.90
20442;DHT22;10380;52.102;20.614;2023-02-28T00:55:55;-2.90;99.90
20442;DHT22;10380;52.102;20.614;2023-02-28T00:58:22;-2.90;99.90
20442;DHT22;10380;52.102;20.614;2023-02-28T01:00:50;-3.00;99.90
20442;DHT22;10380;52.102;20.614;2023-02-28T01:03:18;-3.00;99.90
20442;DHT22;10380;52.102;20.614;2023-02-28T01:05:46;-3.00;99.90
20442;DHT22;10380;52.102;20.614;2023-02-28T01:08:14;-3.10;99.90
20442;DHT22;10380;52.102;20.614;2023-02-28T01:10:41;-3.10;99.90
20442;DHT22;10380;52.102;20.614;2023-02-28T01:13:11;-3.20;99.90
20442;DHT22;10380;52.102;20.614;2023-02-28T01:15:43;-3.20;99.90
20442;DHT22;10380;52.102;20.614;2023-02-28T01:18:10;-3.30;99.90
20442;DHT22;10380;52.102;20.614;2023-02-28T01:20:38;-3.30;99.90
20442;DHT22;10380;52.102;20.614;2023-02-28T01:23:04;-3.30;99.90
20442;DHT22;10380;52.102;20.614;2023-02-28T01:25:34;-3.40;99.90
20442;DHT22;10380;52.102;20.614;2023-02-28T01:28:02;-3.40;99.90
20442;DHT22;10380;52.102;20.614;2023-02-28T01:30:30;-3.50;99.90
20442;DHT22;10380;52.102;20.614;2023-02-28T01:32:58;-3.50;99.90
20442;DHT22;10380;52.102;20.614;2023-02-28T01:35:25;-3.50;99.90
20442;DHT22;10380;52.102;20.614;2023-02-28T01:37:52;-3.60;99.90
20442;DHT22;10380;52.102;20.614;2023-02-28T01:40:20;-3.60;99.90
20442;DHT22;10380;52.102;20.614;2023-02-28T01:42:47;-3.60;99.90
20442;DHT22;10380;52.102;20.614;2023-02-28T01:45:22;-3.60;99.90
20442;DHT22;10380;52.102;20.614;2023-02-28T01:47:52;-3.60;99.90
20442;DHT22;10380;52.102;20.614;2023-02-28T01:50:24;-3.60;99.90
20442;DHT22;10380;52.102;20.614;2023-02-28T01:52:55;-3.60;99.90
20442;DHT22;10380;52.102;20.614;2023-02-28T01:55:24;-3.60;99.90
20442;DHT22;10380;52.102;20.614;2023-02-28T01:57:58;-3.60;99.90
20442;DHT22;10380;52.102;20.614;2023-02-28T02:00:27;-3.60;99.90
20442;DHT22;10380;52.102;20.614;2023-02-28T02:03:08;-3.60;99.90
20442;DHT22;10380;52.102;20.614;2023-02-28T02:05:38;-3.60;99.90
20442;DHT22;10380;52.102;20.614;2023-02-28T02:08:12;-3.60;99.90
20442;DHT22;10380;52.102;20.614;2023-02-28T02:16:13;-3.60;99.90
20442;DHT22;10380;52.102;20.614;2023-02-28T02:18:57;-3.60;99.90
20442;DHT22;10380;52.102;20.614;2023-02-28T02:21:37;-3.60;99.90
20442;DHT22;10380;52.102;20.614;2023-02-28T02:37:26;-3.80;99.90
20442;DHT22;10380;52.102;20.614;2023-02-28T02:43:02;-3.80;99.90
20442;DHT22;10380;52.102;20.614;2023-02-28T02:45:50;-3.80;99.90
20442;DHT22;10380;52.102;20.614;2023-02-28T02:48:21;-3.80;99.90
20442;DHT22;10380;52.102;20.614;2023-02-28T02:50:56;-3.80;99.90
20442;DHT22;10380;52.102;20.614;2023-02-28T02:53:47;-3.80;99.90
20442;DHT22;10380;52.102;20.614;2023-02-28T02:56:19;-3.90;99.90
20442;DHT22;10380;52.102;20.614;2023-02-28T02:58:49;-3.90;99.90
20442;DHT22;10380;52.102;20.614;2023-02-28T03:01:23;-3.80;99.90
20442;DHT22;10380;52.102;20.614;2023-02-28T03:04:02;-3.80;99.90
20442;DHT22;10380;52.102;20.614;2023-02-28T03:06:30;-3.90;99.90
20442;DHT22;10380;52.102;20.614;2023-02-28T03:08:57;-3.90;99.90
20442;DHT22;10380;52.102;20.614;2023-02-28T03:11:24;-3.90;99.90
20442;DHT22;10380;52.102;20.614;2023-02-28T03:16:33;-3.90;99.90
20442;DHT22;10380;52.102;20.614;2023-02-28T03:22:01;-3.90;99.90
20442;DHT22;10380;52.102;20.614;2023-02-28T03:27:15;-3.90;99.90
20442;DHT22;10380;52.102;20.614;2023-02-28T03:29:50;-3.90;99.90
20442;DHT22;10380;52.102;20.614;2023-02-28T03:32:31;-4.00;99.90
20442;DHT22;10380;52.102;20.614;2023-02-28T03:35:07;-4.00;99.90
20442;DHT22;10380;52.102;20.614;2023-02-28T03:37:39;-4.00;99.90
20442;DHT22;10380;52.102;20.614;2023-02-28T03:40:17;-4.00;99.90
20442;DHT22;10380;52.102;20.614;2023-02-28T03:42:50;-4.00;99.90
20442;DHT22;10380;52.102;20.614;2023-02-28T03:45:28;-4.10;99.90
20442;DHT22;10380;52.102;20.614;2023-02-28T03:48:07;-4.10;99.90
20442;DHT22;10380;52.102;20.614;2023-02-28T03:50:43;-4.10;99.90
20442;DHT22;10380;52.102;20.614;2023-02-28T03:53:12;-4.10;99.90
20442;DHT22;10380;52.102;20.614;2023-02-28T03:56:01;-4.10;99.90
20442;DHT22;10380;52.102;20.614;2023-02-28T03:58:31;-4.10;99.90
20442;DHT22;10380;52.102;20.614;2023-02-28T04:01:15;-4.10;99.90
20442;DHT22;10380;52.102;20.614;2023-02-28T04:03:48;-4.10;99.90
20442;DHT22;10380;52.102;20.614;2023-02-28T04:06:19;-4.10;99.90
20442;DHT22;10380;52.102;20.614;2023-02-28T04:08:46;-4.10;99.90
20442;DHT22;10380;52.102;20.614;2023-02-28T04:11:26;-4.10;99.90
20442;DHT22;10380;52.102;20.614;2023-02-28T04:13:54;-4.10;99.90
20442;DHT22;10380;52.102;20.614;2023-02-28T04:16:21;-4.10;99.90
20442;DHT22;10380;52.102;20.614;2023-02-28T04:19:03;-4.10;99.90
20442;DHT22;10380;52.102;20.614;2023-02-28T04:21:46;-4.20;99.90
20442;DHT22;10380;52.102;20.614;2023-02-28T04:24:16;-4.20;99.90
20442;DHT22;10380;52.102;20.614;2023-02-28T04:26:50;-4.20;99.90
20442;DHT22;10380;52.102;20.614;2023-02-28T04:29:30;-4.10;99.90
20442;DHT22;10380;52.102;20.614;2023-02-28T04:31:59;-4.20;99.90
20442;DHT22;10380;52.102;20.614;2023-02-28T04:34:30;-4.20;99.90
20442;DHT22;10380;52.102;20.614;2023-02-28T04:36:58;-4.20;99.90
20442;DHT22;10380;52.102;20.614;2023-02-28T04:39:40;-4.20;99.90
20442;DHT22;10380;52.102;20.614;2023-02-28T04:42:08;-4.30;99.90
20442;DHT22;10380;52.102;20.614;2023-02-28T04:44:35;-4.20;99.90
20442;DHT22;10380;52.102;20.614;2023-02-28T04:47:02;-4.30;99.90
20442;DHT22;10380;52.102;20.614;2023-02-28T04:49:29;-4.30;99.90
20442;DHT22;10380;52.102;20.614;2023-02-28T04:51:57;-4.30;99.90
20442;DHT22;10380;52.102;20.614;2023-02-28T04:54:25;-4.30;99.90
20442;DHT22;10380;52.102;20.614;2023-02-28T04:56:52;-4.30;99.90
20442;DHT22;10380;52.102;20.614;2023-02-28T04:59:19;-4.40;99.90
20442;DHT22;10380;52.102;20.614;2023-02-28T05:01:48;-4.40;99.90
20442;DHT22;10380;52.102;20.614;2023-02-28T05:04:16;-4.40;99.90
20442;DHT22;10380;52.102;20.614;2023-02-28T05:06:45;-4.40;99.90
20442;DHT22;10380;52.102;20.614;2023-02-28T05:09:12;-4.40;99.90
20442;DHT22;10380;52.102;20.614;2023-02-28T05:11:39;-4.40;99.90
20442;DHT22;10380;52.102;20.614;2023-02-28T05:14:12;-4.50;99.90
20442;DHT22;10380;52.102;20.614;2023-02-28T05:16:39;-4.50;99.90
20442;DHT22;10380;52.102;20.614;2023-02-28T05:19:07;-4.40;99.90
20442;DHT22;10380;52.102;20.614;2023-02-28T05:21:36;-4.50;99.90
20442;DHT22;10380;52.102;20.614;2023-02-28T05:24:07;-4.50;99.90
20442;DHT22;10380;52.102;20.614;2023-02-28T05:26:37;-4.40;99.90
20442;DHT22;10380;52.102;20.614;2023-02-28T05:29:04;-4.40;99.90
20442;DHT22;10380;52.102;20.614;2023-02-28T05:31:32;-4.50;99.90
20442;DHT22;10380;52.102;20.614;2023-02-28T05:34:00;-4.40;99.90
20442;DHT22;10380;52.102;20.614;2023-02-28T05:36:27;-4.40;99.90
20442;DHT22;10380;52.102;20.614;2023-02-28T05:38:55;-4.50;99.90
20442;DHT22;10380;52.102;20.614;2023-02-28T05:41:22;-4.50;99.90
20442;DHT22;10380;52.102;20.614;2023-02-28T05:43:49;-4.50;99.90
20442;DHT22;10380;52.102;20.614;2023-02-28T05:46:16;-4.50;99.90
20442;DHT22;10380;52.102;20.614;2023-02-28T05:48:46;-4.50;99.90
20442;DHT22;10380;52.102;20.614;2023-02-28T05:51:14;-4.50;99.90
20442;DHT22;10380;52.102;20.614;2023-02-28T05:53:41;-4.50;99.90
20442;DHT22;10380;52.102;20.614;2023-02-28T05:56:08;-4.50;99.90
20442;DHT22;10380;52.102;20.614;2023-02-28T05:58:35;-4.40;99.90
20442;DHT22;10380;52.102;20.614;2023-02-28T06:01:30;-4.40;99.90
20442;DHT22;10380;52.102;20.614;2023-02-28T06:04:00;-4.30;99.90
20442;DHT22;10380;52.102;20.614;2023-02-28T06:06:27;-4.30;99.90
20442;DHT22;10380;52.102;20.614;2023-02-28T06:08:55;-4.20;99.90
20442;DHT22;10380;52.102;20.614;2023-02-28T06:11:23;-4.20;99.90
20442;DHT22;10380;52.102;20.614;2023-02-28T06:13:58;-4.10;99.90
20442;DHT22;10380;52.102;20.614;2023-02-28T06:16:32;-4.10;99.90
20442;DHT22;10380;52.102;20.614;2023-02-28T06:19:01;-4.00;99.90
20442;DHT22;10380;52.102;20.614;2023-02-28T06:21:28;-4.00;99.90
20442;DHT22;10380;52.102;20.614;2023-02-28T06:23:57;-3.90;99.90
20442;DHT22;10380;52.102;20.614;2023-02-28T06:26:25;-3.90;99.90
20442;DHT22;10380;52.102;20.614;2023-02-28T06:28:52;-3.80;99.90
20442;DHT22;10380;52.102;20.614;2023-02-28T06:31:20;-3.80;99.90
20442;DHT22;10380;52.102;20.614;2023-02-28T06:33:49;-3.70;99.90
20442;DHT22;10380;52.102;20.614;2023-02-28T06:36:17;-3.70;99.90
20442;DHT22;10380;52.102;20.614;2023-02-28T06:38:44;-3.60;99.90
20442;DHT22;10380;52.102;20.614;2023-02-28T06:41:11;-3.50;99.90
20442;DHT22;10380;52.102;20.614;2023-02-28T06:43:40;-3.40;99.90
20442;DHT22;10380;52.102;20.614;2023-02-28T06:46:10;-3.30;99.90
20442;DHT22;10380;52.102;20.614;2023-02-28T06:48:38;-3.30;99.90
20442;DHT22;10380;52.102;20.614;2023-02-28T06:51:10;-3.10;99.90
20442;DHT22;10380;52.102;20.614;2023-02-28T06:53:37;-3.00;99.90
20442;DHT22;10380;52.102;20.614;2023-02-28T06:56:06;-2.90;99.90
20442;DHT22;10380;52.102;20.614;2023-02-28T06:58:34;-2.70;99.90
20442;DHT22;10380;52.102;20.614;2023-02-28T07:01:02;-2.60;99.90
20442;DHT22;10380;52.102;20.614;2023-02-28T07:03:29;-2.40;99.90
20442;DHT22;10380;52.102;20.614;2023-02-28T07:06:00;-2.30;99.90
20442;DHT22;10380;52.102;20.614;2023-02-28T07:08:27;-2.10;99.90
20442;DHT22;10380;52.102;20.614;2023-02-28T07:10:55;-1.90;99.90
20442;DHT22;10380;52.102;20.614;2023-02-28T07:13:23;-1.80;99.90
20442;DHT22;10380;52.102;20.614;2023-02-28T07:15:58;-1.70;99.90
20442;DHT22;10380;52.102;20.614;2023-02-28T07:18:25;-1.50;99.90
20442;DHT22;10380;52.102;20.614;2023-02-28T07:20:52;-1.40;99.90
20442;DHT22;10380;52.102;20.614;2023-02-28T07:23:20;-1.20;99.90
20442;DHT22;10380;52.102;20.614;2023-02-28T07:25:48;-1.10;99.90
20442;DHT22;10380;52.102;20.614;2023-02-28T07:28:15;-1.00;99.90
20442;DHT22;10380;52.102;20.614;2023-02-28T07:30:43;-0.80;99.90
20442;DHT22;10380;52.102;20.614;2023-02-28T07:33:10;-0.70;99.90
20442;DHT22;10380;52.102;20.614;2023-02-28T07:35:36;-0.60;99.90
20442;DHT22;10380;52.102;20.614;2023-02-28T07:38:03;-0.50;99.90
20442;DHT22;10380;52.102;20.614;2023-02-28T07:40:31;-0.30;99.90
20442;DHT22;10380;52.102;20.614;2023-02-28T07:42:59;-0.20;99.90
20442;DHT22;10380;52.102;20.614;2023-02-28T07:45:27;-0.20;99.90
20442;DHT22;10380;52.102;20.614;2023-02-28T07:47:55;0.00;99.90
20442;DHT22;10380;52.102;20.614;2023-02-28T07:50:22;0.00;99.90
20442;DHT22;10380;52.102;20.614;2023-02-28T07:52:52;0.20;99.90
20442;DHT22;10380;52.102;20.614;2023-02-28T07:55:19;0.30;99.90
20442;DHT22;10380;52.102;20.614;2023-02-28T07:57:46;0.40;99.90
20442;DHT22;10380;52.102;20.614;2023-02-28T08:00:13;0.40;99.90
20442;DHT22;10380;52.102;20.614;2023-02-28T08:02:40;0.50;99.90
20442;DHT22;10380;52.102;20.614;2023-02-28T08:05:07;0.60;99.90
20442;DHT22;10380;52.102;20.614;2023-02-28T08:07:35;0.70;99.90
20442;DHT22;10380;52.102;20.614;2023-02-28T08:10:02;0.80;99.90
20442;DHT22;10380;52.102;20.614;2023-02-28T08:12:29;0.90;99.90
20442;DHT22;10380;52.102;20.614;2023-02-28T08:14:56;1.00;99.90
20442;DHT22;10380;52.102;20.614;2023-02-28T08:17:23;1.10;99.90
20442;DHT22;10380;52.102;20.614;2023-02-28T08:19:50;1.20;99.90
20442;DHT22;10380;52.102;20.614;2023-02-28T08:22:16;1.20;99.90
20442;DHT22;10380;52.102;20.614;2023-02-28T08:24:43;1.30;99.90
20442;DHT22;10380;52.102;20.614;2023-02-28T08:27:10;1.30;99.90
20442;DHT22;10380;52.102;20.614;2023-02-28T08:29:38;1.30;99.90
20442;DHT22;10380;52.102;20.614;2023-02-28T08:32:06;1.30;99.90
20442;DHT22;10380;52.102;20.614;2023-02-28T08:34:45;1.30;99.90
20442;DHT22;10380;52.102;20.614;2023-02-28T08:37:13;1.30;99.90
20442;DHT22;10380;52.102;20.614;2023-02-28T08:39:40;1.30;99.90
20442;DHT22;10380;52.102;20.614;2023-02-28T08:42:07;1.30;99.90
20442;DHT22;10380;52.102;20.614;2023-02-28T08:44:34;1.40;99.90
20442;DHT22;10380;52.102;20.614;2023-02-28T08:47:01;1.40;99.90
20442;DHT22;10380;52.102;20.614;2023-02-28T08:49:28;1.50;99.90
20442;DHT22;10380;52.102;20.614;2023-02-28T08:51:55;1.50;99.90
20442;DHT22;10380;52.102;20.614;2023-02-28T08:54:24;1.60;99.90
20442;DHT22;10380;52.102;20.614;2023-02-28T08:56:51;1.70;99.90
20442;DHT22;10380;52.102;20.614;2023-02-28T08:59:18;1.70;99.90
20442;DHT22;10380;52.102;20.614;2023-02-28T09:01:45;1.70;99.90
20442;DHT22;10380;52.102;20.614;2023-02-28T09:04:12;1.80;99.90
20442;DHT22;10380;52.102;20.614;2023-02-28T09:06:45;1.70;99.90
20442;DHT22;10380;52.102;20.614;2023-02-28T09:09:11;1.70;99.90
20442;DHT22;10380;52.102;20.614;2023-02-28T09:11:41;1.70;99.90
20442;DHT22;10380;52.102;20.614;2023-02-28T09:14:08;1.60;99.90
20442;DHT22;10380;52.102;20.614;2023-02-28T09:16:35;1.60;99.90
20442;DHT22;10380;52.102;20.614;2023-02-28T09:19:02;1.60;99.90
20442;DHT22;10380;52.102;20.614;2023-02-28T09:21:29;1.60;99.90
20442;DHT22;10380;52.102;20.614;2023-02-28T09:23:57;1.60;99.90
20442;DHT22;10380;52.102;20.614;2023-02-28T09:26:26;1.60;99.90
20442;DHT22;10380;52.102;20.614;2023-02-28T09:29:08;1.60;99.90
20442;DHT22;10380;52.102;20.614;2023-02-28T09:31:35;1.70;99.90
20442;DHT22;10380;52.102;20.614;2023-02-28T09:34:03;1.80;99.90
20442;DHT22;10380;52.102;20.614;2023-02-28T09:36:30;1.80;99.90
20442;DHT22;10380;52.102;20.614;2023-02-28T09:39:10;1.80;99.90
20442;DHT22;10380;52.102;20.614;2023-02-28T09:41:45;1.70;99.90
20442;DHT22;10380;52.102;20.614;2023-02-28T09:46:51;1.80;99.90
20442;DHT22;10380;52.102;20.614;2023-02-28T09:49:24;1.80;99.90
20442;DHT22;10380;52.102;20.614;2023-02-28T09:52:03;1.80;99.90
20442;DHT22;10380;52.102;20.614;2023-02-28T09:54:33;1.90;99.90
20442;DHT22;10380;52.102;20.614;2023-02-28T10:05:05;2.10;99.90
20442;DHT22;10380;52.102;20.614;2023-02-28T10:10:45;2.10;99.90
20442;DHT22;10380;52.102;20.614;2023-02-28T10:15:40;1.80;99.90
20442;DHT22;10380;52.102;20.614;2023-02-28T10:18:13;1.70;99.90
20442;DHT22;10380;52.102;20.614;2023-02-28T10:20:42;1.70;99.90
20442;DHT22;10380;52.102;20.614;2023-02-28T10:25:40;1.60;99.90
20442;DHT22;10380;52.102;20.614;2023-02-28T10:28:11;1.60;99.90
20442;DHT22;10380;52.102;20.614;2023-02-28T10:30:42;1.60;99.90
20442;DHT22;10380;52.102;20.614;2023-02-28T10:33:23;1.60;99.90
20442;DHT22;10380;52.102;20.614;2023-02-28T10:35:52;1.60;99.90
20442;DHT22;10380;52.102;20.614;2023-02-28T10:38:25;1.70;99.90
20442;DHT22;10380;52.102;20.614;2023-02-28T10:41:10;1.70;99.90
20442;DHT22;10380;52.102;20.614;2023-02-28T10:43:38;1.80;99.90
20442;DHT22;10380;52.102;20.614;2023-02-28T10:51:25;1.60;99.90
20442;DHT22;10380;52.102;20.614;2023-02-28T10:54:00;1.70;99.90
20442;DHT22;10380;52.102;20.614;2023-02-28T10:56:28;1.70;99.90
20442;DHT22;10380;52.102;20.614;2023-02-28T11:01:46;1.70;99.90
20442;DHT22;10380;52.102;20.614;2023-02-28T11:07:01;1.70;99.90
20442;DHT22;10380;52.102;20.614;2023-02-28T11:09:39;1.70;99.90
20442;DHT22;10380;52.102;20.614;2023-02-28T11:12:19;1.70;99.90
20442;DHT22;10380;52.102;20.614;2023-02-28T11:14:53;1.70;99.90
20442;DHT22;10380;52.102;20.614;2023-02-28T11:17:26;1.70;99.90
20442;DHT22;10380;52.102;20.614;2023-02-28T11:20:05;1.70;99.90
20442;DHT22;10380;52.102;20.614;2023-02-28T11:22:37;1.80;99.90
20442;DHT22;10380;52.102;20.614;2023-02-28T11:25:25;1.80;99.90
20442;DHT22;10380;52.102;20.614;2023-02-28T11:27:55;1.80;99.90
20442;DHT22;10380;52.102;20.614;2023-02-28T11:30:31;1.80;99.90
20442;DHT22;10380;52.102;20.614;2023-02-28T11:33:01;1.80;99.90
20442;DHT22;10380;52.102;20.614;2023-02-28T11:35:33;1.80;99.90
20442;DHT22;10380;52.102;20.614;2023-02-28T11:38:02;1.90;99.90
20442;DHT22;10380;52.102;20.614;2023-02-28T11:40:51;2.00;99.90
20442;DHT22;10380;52.102;20.614;2023-02-28T11:51:53;2.10;99.90
20442;DHT22;10380;52.102;20.614;2023-02-28T11:56:36;2.40;99.90
20442;DHT22;10380;52.102;20.614;2023-02-28T12:10:28;4.60;99.90
20442;DHT22;10380;52.102;20.614;2023-02-28T12:13:26;4.90;99.90
20442;DHT22;10380;52.102;20.614;2023-02-28T12:16:02;5.10;99.90
20442;DHT22;10380;52.102;20.614;2023-02-28T12:18:50;5.30;99.90
20442;DHT22;10380;52.102;20.614;2023-02-28T12:26:49;7.00;99.90
20442;DHT22;10380;52.102;20.614;2023-02-28T12:29:28;7.50;99.90
20442;DHT22;10380;52.102;20.614;2023-02-28T12:32:06;7.70;99.90
20442;DHT22;10380;52.102;20.614;2023-02-28T12:34:52;7.90;99.90
20442;DHT22;10380;52.102;20.614;2023-02-28T12:37:27;7.80;99.90
20442;DHT22;10380;52.102;20.614;2023-02-28T12:40:03;7.60;99.90
20442;DHT22;10380;52.102;20.614;2023-02-28T12:42:36;7.50;99.90
20442;DHT22;10380;52.102;20.614;2023-02-28T12:45:10;7.80;99.90
20442;DHT22;10380;52.102;20.614;2023-02-28T12:47:41;7.80;99.90
20442;DHT22;10380;52.102;20.614;2023-02-28T12:50:10;7.50;99.90
20442;DHT22;10380;52.102;20.614;2023-02-28T12:55:53;6.90;99.90
20442;DHT22;10380;52.102;20.614;2023-02-28T12:58:37;7.10;99.90
20442;DHT22;10380;52.102;20.614;2023-02-28T13:09:14;7.60;99.90
20442;DHT22;10380;52.102;20.614;2023-02-28T13:11:47;7.40;99.90
20442;DHT22;10380;52.102;20.614;2023-02-28T13:14:27;7.10;99.90
20442;DHT22;10380;52.102;20.614;2023-02-28T13:16:58;7.00;99.90
20442;DHT22;10380;52.102;20.614;2023-02-28T13:19:30;7.00;99.90
20442;DHT22;10380;52.102;20.614;2023-02-28T13:21:58;7.00;99.90
20442;DHT22;10380;52.102;20.614;2023-02-28T13:24:48;7.20;99.90
20442;DHT22;10380;52.102;20.614;2023-02-28T13:29:43;6.80;99.90
20442;DHT22;10380;52.102;20.614;2023-02-28T13:34:47;6.70;99.90
20442;DHT22;10380;52.102;20.614;2023-02-28T13:37:54;6.60;99.90
20442;DHT22;10380;52.102;20.614;2023-02-28T13:40:35;6.40;99.90
20442;DHT22;10380;52.102;20.614;2023-02-28T13:43:08;6.10;99.90
20442;DHT22;10380;52.102;20.614;2023-02-28T13:45:35;6.00;99.90
20442;DHT22;10380;52.102;20.614;2023-02-28T13:48:18;6.00;99.90
20442;DHT22;10380;52.102;20.614;2023-02-28T13:50:46;6.30;99.90
20442;DHT22;10380;52.102;20.614;2023-02-28T14:02:03;6.40;99.90
20442;DHT22;10380;52.102;20.614;2023-02-28T14:05:00;6.30;99.90
20442;DHT22;10380;52.102;20.614;2023-02-28T14:07:36;6.30;99.90
20442;DHT22;10380;52.102;20.614;2023-02-28T14:10:07;6.50;99.90
20442;DHT22;10380;52.102;20.614;2023-02-28T14:15:39;7.00;99.90
20442;DHT22;10380;52.102;20.614;2023-02-28T14:18:29;7.10;99.90
20442;DHT22;10380;52.102;20.614;2023-02-28T14:21:22;6.90;99.90
20442;DHT22;10380;52.102;20.614;2023-02-28T14:27:03;6.30;99.90
20442;DHT22;10380;52.102;20.614;2023-02-28T14:37:44;5.20;99.90
20442;DHT22;10380;52.102;20.614;2023-02-28T14:40:17;4.90;99.90
20442;DHT22;10380;52.102;20.614;2023-02-28T14:42:54;4.70;99.90
20442;DHT22;10380;52.102;20.614;2023-02-28T14:45:22;4.50;99.90
20442;DHT22;10380;52.102;20.614;2023-02-28T14:47:51;4.40;99.90
20442;DHT22;10380;52.102;20.614;2023-02-28T14:50:21;4.30;99.90
20442;DHT22;10380;52.102;20.614;2023-02-28T14:52:52;4.20;99.90
20442;DHT22;10380;52.102;20.614;2023-02-28T14:55:24;4.20;99.90
20442;DHT22;10380;52.102;20.614;2023-02-28T14:58:04;4.20;99.90
20442;DHT22;10380;52.102;20.614;2023-02-28T15:00:36;4.10;99.90
20442;DHT22;10380;52.102;20.614;2023-02-28T15:03:36;3.90;99.90
20442;DHT22;10380;52.102;20.614;2023-02-28T15:06:17;3.90;99.90
20442;DHT22;10380;52.102;20.614;2023-02-28T15:08:45;3.80;99.90
20442;DHT22;10380;52.102;20.614;2023-02-28T15:11:17;3.70;99.90
20442;DHT22;10380;52.102;20.614;2023-02-28T15:13:54;3.60;99.90
20442;DHT22;10380;52.102;20.614;2023-02-28T15:16:41;3.50;99.90
20442;DHT22;10380;52.102;20.614;2023-02-28T15:19:26;3.40;99.90
20442;DHT22;10380;52.102;20.614;2023-02-28T15:22:15;3.40;99.90
20442;DHT22;10380;52.102;20.614;2023-02-28T15:24:47;3.30;99.90
20442;DHT22;10380;52.102;20.614;2023-02-28T15:27:27;3.30;99.90
20442;DHT22;10380;52.102;20.614;2023-02-28T15:29:56;3.30;99.90
20442;DHT22;10380;52.102;20.614;2023-02-28T15:32:30;3.30;99.90
20442;DHT22;10380;52.102;20.614;2023-02-28T15:34:58;3.40;99.90
20442;DHT22;10380;52.102;20.614;2023-02-28T15:37:45;3.40;99.90
20442;DHT22;10380;52.102;20.614;2023-02-28T15:40:26;3.40;99.90
20442;DHT22;10380;52.102;20.614;2023-02-28T15:43:06;3.30;99.90
20442;DHT22;10380;52.102;20.614;2023-02-28T15:45:38;3.20;99.90
20442;DHT22;10380;52.102;20.614;2023-02-28T15:48:37;3.10;99.90
20442;DHT22;10380;52.102;20.614;2023-02-28T15:51:12;3.00;99.90
20442;DHT22;10380;52.102;20.614;2023-02-28T15:59:01;2.80;99.90
20442;DHT22;10380;52.102;20.614;2023-02-28T16:01:36;2.70;99.90
20442;DHT22;10380;52.102;20.614;2023-02-28T16:04:07;2.60;99.90
20442;DHT22;10380;52.102;20.614;2023-02-28T16:06:43;2.50;99.90
20442;DHT22;10380;52.102;20.614;2023-02-28T16:09:15;2.40;99.90
20442;DHT22;10380;52.102;20.614;2023-02-28T16:11:48;2.40;99.90
20442;DHT22;10380;52.102;20.614;2023-02-28T16:14:20;2.30;99.90
20442;DHT22;10380;52.102;20.614;2023-02-28T16:16:52;2.20;99.90
20442;DHT22;10380;52.102;20.614;2023-02-28T16:19:19;2.20;99.90
20442;DHT22;10380;52.102;20.614;2023-02-28T16:21:47;2.10;99.90
20442;DHT22;10380;52.102;20.614;2023-02-28T16:24:14;2.10;99.90
20442;DHT22;10380;52.102;20.614;2023-02-28T16:26:45;2.00;99.90
20442;DHT22;10380;52.102;20.614;2023-02-28T16:29:23;1.90;99.90
20442;DHT22;10380;52.102;20.614;2023-02-28T16:31:51;1.90;99.90
20442;DHT22;10380;52.102;20.614;2023-02-28T16:34:18;1.80;99.90
20442;DHT22;10380;52.102;20.614;2023-02-28T16:36:47;1.70;99.90
20442;DHT22;10380;52.102;20.614;2023-02-28T16:39:14;1.70;99.90
20442;DHT22;10380;52.102;20.614;2023-02-28T16:41:43;1.60;99.90
20442;DHT22;10380;52.102;20.614;2023-02-28T16:44:32;1.50;99.90
20442;DHT22;10380;52.102;20.614;2023-02-28T16:47:01;1.40;99.90
20442;DHT22;10380;52.102;20.614;2023-02-28T16:49:28;1.30;99.90
20442;DHT22;10380;52.102;20.614;2023-02-28T16:51:55;1.20;99.90
20442;DHT22;10380;52.102;20.614;2023-02-28T16:54:22;1.20;99.90
20442;DHT22;10380;52.102;20.614;2023-02-28T16:56:49;1.10;99.90
20442;DHT22;10380;52.102;20.614;2023-02-28T16:59:21;1.00;99.90
20442;DHT22;10380;52.102;20.614;2023-02-28T17:01:48;1.00;99.90
20442;DHT22;10380;52.102;20.614;2023-02-28T17:04:16;0.90;99.90
20442;DHT22;10380;52.102;20.614;2023-02-28T17:06:43;0.90;99.90
20442;DHT22;10380;52.102;20.614;2023-02-28T17:09:17;0.80;99.90
20442;DHT22;10380;52.102;20.614;2023-02-28T17:11:45;0.70;99.90
20442;DHT22;10380;52.102;20.614;2023-02-28T17:14:14;0.60;99.90
20442;DHT22;10380;52.102;20.614;2023-02-28T17:16:41;0.60;99.90
20442;DHT22;10380;52.102;20.614;2023-02-28T17:19:15;0.50;99.90
20442;DHT22;10380;52.102;20.614;2023-02-28T17:21:43;0.40;99.90
20442;DHT22;10380;52.102;20.614;2023-02-28T17:24:10;0.40;99.90
20442;DHT22;10380;52.102;20.614;2023-02-28T17:26:55;0.30;99.90
20442;DHT22;10380;52.102;20.614;2023-02-28T17:29:22;0.30;99.90
20442;DHT22;10380;52.102;20.614;2023-02-28T17:31:50;0.30;99.90
20442;DHT22;10380;52.102;20.614;2023-02-28T17:34:18;0.20;99.90
20442;DHT22;10380;52.102;20.614;2023-02-28T17:36:47;0.20;99.90
20442;DHT22;10380;52.102;20.614;2023-02-28T17:39:16;0.10;99.90
20442;DHT22;10380;52.102;20.614;2023-02-28T17:41:48;0.10;99.90
20442;DHT22;10380;52.102;20.614;2023-02-28T17:44:15;0.10;99.90
20442;DHT22;10380;52.102;20.614;2023-02-28T17:46:42;0.00;99.90
20442;DHT22;10380;52.102;20.614;2023-02-28T17:49:10;0.00;99.90
20442;DHT22;10380;52.102;20.614;2023-02-28T17:51:36;0.00;99.90
20442;DHT22;10380;52.102;20.614;2023-02-28T17:54:03;-0.10;99.90
20442;DHT22;10380;52.102;20.614;2023-02-28T17:56:31;-0.10;99.90
20442;DHT22;10380;52.102;20.614;2023-02-28T17:58:58;-0.10;99.90
20442;DHT22;10380;52.102;20.614;2023-02-28T18:01:26;-0.10;99.90
20442;DHT22;10380;52.102;20.614;2023-02-28T18:03:54;-0.10;99.90